Bookmark and Share
Track history (hours):
 

Ryouei Maru

Last reported at 2014-Apr-22 20:33 UTC. Time now 2014-Apr-24 06:27 UTC.
Position N 36°06' E 140°58'.

Length 95 m; draft 5 m.

Type: Cargo ship. MMSI: 431501749.

NotesDate/timePositionNaut miles runAvg speedWind from/ knotsBaromVisibWave heightAir tempDewpointWater temp
2014-Apr-22 20:33N 36°06' E 140°58'1313.0
2014-Apr-22 19:33N 35°54' E 140°57'1212.1
2014-Apr-22 18:33N 35°41' E 140°56'1312.6
2014-Apr-22 17:33N 35°31' E 140°48'1312.8
2014-Apr-22 16:33N 35°20' E 140°39'1312.8
2014-Apr-22 15:32N 35°10' E 140°30'1212.5
2014-Apr-22 14:33N 35°01' E 140°19'1312.9
2014-Apr-22 13:33N 34°55' E 140°05'1312.7
2014-Apr-22 12:32N 34°48' E 139°52'1212.1
2014-Apr-22 11:33N 34°43' E 139°39'5312.4
2014-Apr-22 07:17N 34°32' E 138°36'18110.2
2014-Apr-21 13:30N 34°10' E 134°58'1313.4
2014-Apr-21 12:31N 34°23' E 135°00'1212.9
2014-Apr-21 11:33N 34°31' E 135°12'1212.2
2014-Apr-21 10:33N 34°37' E 135°24'1 1.2
2014-Apr-21 09:30N 34°37' E 135°26'0 0.0
2014-Apr-21 08:30N 34°37' E 135°26'0 0.0
2014-Apr-21 07:30N 34°37' E 135°26'0 0.0
2014-Apr-21 06:12N 34°37' E 135°26'0 0.0
2014-Apr-21 04:30N 34°37' E 135°26'0 0.0
2014-Apr-21 02:30N 34°37' E 135°26'0 0.0
2014-Apr-21 01:30N 34°37' E 135°26'0 0.0
2014-Apr-21 00:24N 34°37' E 135°26'0 0.0
2014-Apr-20 23:30N 34°37' E 135°26'0 0.0
2014-Apr-20 22:27N 34°37' E 135°26'6 6.7
2014-Apr-20 21:34N 34°35' E 135°18'1 0.7
2014-Apr-20 20:24N 34°35' E 135°18'0 0.0
2014-Apr-20 19:18N 34°35' E 135°18'4 5.3
2014-Apr-20 18:33N 34°32' E 135°15'1212.4
2014-Apr-20 17:33N 34°22' E 135°05'1211.7
2014-Apr-20 16:33N 34°12' E 134°59'24910.6
2014-Apr-19 17:07N 34°52' E 139°57'713.0
2014-Apr-19 16:32N 34°55' E 140°05'2812.5
2014-Apr-19 14:20N 35°12' E 140°32'  
2014-Apr-16 20:14N 36°02' E 140°58'912.0
2014-Apr-16 19:31N 35°54' E 140°57'1212.0
2014-Apr-16 18:33N 35°42' E 140°56'1212.2
2014-Apr-16 17:33N 35°32' E 140°50'1413.7
2014-Apr-16 16:33N 35°20' E 140°40'1514.6
2014-Apr-16 15:33N 35°09' E 140°29'1414.0
2014-Apr-16 14:33N 34°60' E 140°16'1413.7
2014-Apr-16 13:33N 34°53' E 140°02'1413.7
2014-Apr-16 12:33N 34°46' E 139°47'24211.4
2014-Apr-15 15:15N 34°01' E 134°59'1013.7
2014-Apr-15 14:32N 34°10' E 134°59'12 6.3
2014-Apr-15 12:34N 34°23' E 135°01'1312.9
2014-Apr-15 11:34N 34°31' E 135°12'1211.9
2014-Apr-15 10:32N 34°37' E 135°25'1 0.2
2014-Apr-15 07:32N 34°37' E 135°26'0 0.0
2014-Apr-15 06:32N 34°37' E 135°26'0 0.0
2014-Apr-15 05:32N 34°37' E 135°26'0 0.0
2014-Apr-15 00:32N 34°37' E 135°26'0 0.0
2014-Apr-14 22:32N 34°37' E 135°26'0 0.0
2014-Apr-14 21:32N 34°37' E 135°26'6 6.6
2014-Apr-14 20:34N 34°35' E 135°18'10 4.9
2014-Apr-14 18:33N 34°28' E 135°10'1212.3
2014-Apr-14 17:33N 34°18' E 135°00'23610.7
2014-Apr-13 19:32N 34°46' E 139°45'1412.9
2014-Apr-13 18:27N 34°53' E 140°00'1213.4
2014-Apr-13 17:33N 34°58' E 140°13'1512.8
2014-Apr-13 16:21N 35°07' E 140°28'  

Dump ship's entire track history

sailing weather and tide predictions

Ryouei Maru — JL6703 — position and weather